sensor_id;sensor_type;location;lat;lon;timestamp;P1;durP1;ratioP1;P2;durP2;ratioP2
20995;SDS011;10656;52.200;21.052;2024-02-28T00:10:37;72.63;;;45.53;;
20995;SDS011;10656;52.200;21.052;2024-02-28T00:36:01;65.73;;;42.17;;
20995;SDS011;10656;52.200;21.052;2024-02-28T06:51:54;91.07;;;55.83;;
20995;SDS011;10656;52.200;21.052;2024-02-28T07:16:56;91.00;;;54.63;;
20995;SDS011;10656;52.200;21.052;2024-02-28T07:37:11;82.13;;;52.20;;
20995;SDS011;10656;52.200;21.052;2024-02-28T07:57:53;75.13;;;49.70;;
20995;SDS011;10656;52.200;21.052;2024-02-28T08:22:48;65.23;;;46.30;;
20995;SDS011;10656;52.200;21.052;2024-02-28T08:48:33;60.77;;;41.50;;
20995;SDS011;10656;52.200;21.052;2024-02-28T09:18:35;63.20;;;43.13;;
20995;SDS011;10656;52.200;21.052;2024-02-28T09:49:09;46.77;;;35.03;;
20995;SDS011;10656;52.200;21.052;2024-02-28T10:14:32;37.57;;;28.20;;
20995;SDS011;10656;52.200;21.052;2024-02-28T10:40:13;41.90;;;27.60;;
20995;SDS011;10656;52.200;21.052;2024-02-28T11:10:22;41.43;;;29.23;;
20995;SDS011;10656;52.200;21.052;2024-02-28T11:25:54;38.13;;;28.47;;
20995;SDS011;10656;52.200;21.052;2024-02-28T11:56:01;38.70;;;24.27;;
20995;SDS011;10656;52.200;21.052;2024-02-28T12:21:22;52.63;;;33.90;;
20995;SDS011;10656;52.200;21.052;2024-02-28T12:51:58;79.53;;;49.03;;
20995;SDS011;10656;52.200;21.052;2024-02-28T13:12:25;66.83;;;42.27;;
20995;SDS011;10656;52.200;21.052;2024-02-28T13:32:33;61.30;;;37.43;;
20995;SDS011;10656;52.200;21.052;2024-02-28T14:02:58;46.77;;;29.70;;
20995;SDS011;10656;52.200;21.052;2024-02-28T14:05:39;47.87;;;30.27;;
20995;SDS011;10656;52.200;21.052;2024-02-28T14:14:43;41.13;;;27.60;;
20995;SDS011;10656;52.200;21.052;2024-02-28T14:28:13;43.87;;;28.10;;
20995;SDS011;10656;52.200;21.052;2024-02-28T14:53:37;35.97;;;22.47;;
20995;SDS011;10656;52.200;21.052;2024-02-28T15:19:11;33.20;;;18.93;;
20995;SDS011;10656;52.200;21.052;2024-02-28T15:34:27;31.90;;;19.87;;
20995;SDS011;10656;52.200;21.052;2024-02-28T15:54:45;34.67;;;21.63;;
20995;SDS011;10656;52.200;21.052;2024-02-28T16:35:21;33.80;;;20.97;;
20995;SDS011;10656;52.200;21.052;2024-02-28T17:00:36;37.83;;;22.07;;
20995;SDS011;10656;52.200;21.052;2024-02-28T17:51:09;38.70;;;23.43;;
20995;SDS011;10656;52.200;21.052;2024-02-28T18:16:47;35.07;;;21.73;;
20995;SDS011;10656;52.200;21.052;2024-02-28T18:37:03;34.80;;;23.20;;
20995;SDS011;10656;52.200;21.052;2024-02-28T18:40:30;32.87;;;22.23;;
20995;SDS011;10656;52.200;21.052;2024-02-28T18:57:13;32.10;;;21.27;;
20995;SDS011;10656;52.200;21.052;2024-02-28T19:27:35;28.67;;;19.90;;
20995;SDS011;10656;52.200;21.052;2024-02-28T19:34:51;30.33;;;20.63;;
20995;SDS011;10656;52.200;21.052;2024-02-28T20:53:51;40.23;;;24.47;;
20995;SDS011;10656;52.200;21.052;2024-02-28T21:18:50;38.97;;;24.40;;
20995;SDS011;10656;52.200;21.052;2024-02-28T21:44:40;38.30;;;20.60;;
20995;SDS011;10656;52.200;21.052;2024-02-28T22:09:58;48.17;;;27.87;;
20995;SDS011;10656;52.200;21.052;2024-02-28T22:45:33;48.03;;;25.70;;
20995;SDS011;10656;52.200;21.052;2024-02-28T23:05:33;48.33;;;26.67;;
20995;SDS011;10656;52.200;21.052;2024-02-28T23:35:35;22.87;;;14.20;;
20995;SDS011;10656;52.200;21.052;2024-02-28T23:56:34;23.53;;;15.00;;
